Terminal Aerodrome Forecast
Issued by NWS La Crosse, WI

Home | Current Version | Previous Version | Text Only | Print | Product List | Glossary On
Versions: 1 2 3 4 5 6 7 8 9 10 11 12 13 14 15 16 17 18 19 20 21 22 23 24
000
FTUS43 KARX 280520
TAFRST
TAF
KRST 280520Z 2806/2906 VRB04KT P6SM SCT150
     FM280700 13005KT P6SM BKN070
     FM281500 13008KT 4SM -SHRA BR OVC045
      TEMPO 2817/2821 2SM TSRA BR BKN020CB
     FM282100 14009KT 3SM -SHRA BR BKN030
      TEMPO 2821/2823 1SM TSRA BR BKN015CB
     FM290100 13006KT 6SM -SHRA BKN025=

USA.gov is the U.S. government's official web portal to all federal, state and local government web resources and services.